Time;durP1;ratioP1;P1;durP2;ratioP2;P2;SDS_P1;SDS_P2;PMS_P1;PMS_P2;Temp;Humidity;BMP_temperature;BMP_pressure;BME280_temperature;BME280_humidity;BME280_pressure;Samples;Min_cycle;Max_cycle;Signal;HPM_P1;HPM_P2
2021/10/20 00:00:46;;;;;;;72.00;37.97;;;;;;;10.11;66.12;101725.97;126192;1099;104319;-80
2021/10/20 00:03:14;;;;;;;71.33;39.60;;;;;;;10.12;66.17;101727.78;126327;1099;104253;-81
2021/10/20 00:05:42;;;;;;;72.53;38.67;;;;;;;10.12;66.08;101726.05;126319;1099;104194;-80
2021/10/20 00:08:10;;;;;;;70.60;39.13;;;;;;;10.12;65.83;101722.54;126309;1099;104137;-80
2021/10/20 00:10:38;;;;;;;72.37;39.07;;;;;;;10.11;65.90;101721.61;126287;1099;104153;-81
2021/10/20 00:13:06;;;;;;;68.30;38.47;;;;;;;10.12;66.25;101714.67;126287;1099;104192;-80
2021/10/20 00:15:35;;;;;;;68.40;38.73;;;;;;;10.12;66.35;101712.05;126363;1099;104134;-80
2021/10/20 00:18:03;;;;;;;71.87;38.57;;;;;;;10.10;66.09;101718.91;126337;1097;104168;-80
2021/10/20 00:20:31;;;;;;;70.67;38.33;;;;;;;10.08;65.94;101719.74;126338;1099;104277;-80
2021/10/20 00:22:59;;;;;;;74.13;38.40;;;;;;;10.07;66.52;101723.17;126296;1099;104258;-80
2021/10/20 00:25:27;;;;;;;73.10;39.10;;;;;;;10.09;66.23;101712.77;126289;1099;104165;-80
2021/10/20 00:27:54;;;;;;;67.90;36.33;;;;;;;10.12;65.96;101714.67;126307;1099;104139;-79
2021/10/20 00:30:25;;;;;;;69.63;38.33;;;;;;;10.14;66.11;101716.55;126254;1099;105525;-79
2021/10/20 00:32:53;;;;;;;70.40;38.57;;;;;;;10.12;65.99;101704.18;126302;1099;104182;-78
2021/10/20 00:35:21;;;;;;;76.73;37.90;;;;;;;10.11;66.51;101707.61;126315;1099;104140;-79
2021/10/20 00:37:49;;;;;;;76.73;38.40;;;;;;;10.10;66.66;101703.17;126318;1099;104354;-81
2021/10/20 00:40:17;;;;;;;71.27;38.83;;;;;;;10.08;66.42;101690.89;126315;1099;104181;-80
2021/10/20 00:42:45;;;;;;;71.00;38.93;;;;;;;10.08;66.51;101687.34;126326;1099;104275;-79
2021/10/20 00:45:14;;;;;;;72.23;38.73;;;;;;;10.08;66.43;101684.72;126365;1099;104211;-79
2021/10/20 00:47:42;;;;;;;73.20;38.13;;;;;;;10.08;66.25;101693.52;126328;1099;104149;-80
2021/10/20 00:50:13;;;;;;;75.63;39.07;;;;;;;10.10;66.65;101690.98;126288;1099;104325;-79
2021/10/20 00:52:41;;;;;;;75.77;40.73;;;;;;;10.11;66.59;101687.52;126326;1099;104191;-78
2021/10/20 00:55:12;;;;;;;70.47;38.50;;;;;;;10.13;66.47;101687.61;126313;1099;104143;-80
2021/10/20 00:57:41;;;;;;;73.20;39.90;;;;;;;10.12;66.47;101686.72;126320;1099;104191;-80
2021/10/20 01:00:12;;;;;;;74.40;39.57;;;;;;;10.14;66.68;101689.42;126317;1099;104275;-80
2021/10/20 01:02:41;;;;;;;77.00;40.27;;;;;;;10.13;66.30;101685.91;126184;1098;104405;-80
2021/10/20 01:05:11;;;;;;;73.63;40.07;;;;;;;10.15;66.18;101678.13;126362;1099;104137;-80
2021/10/20 01:07:39;;;;;;;70.57;39.83;;;;;;;10.15;66.12;101681.64;126345;1099;104150;-80
2021/10/20 01:10:10;;;;;;;70.73;39.63;;;;;;;10.14;66.71;101681.55;126362;1099;104271;-80
2021/10/20 01:12:39;;;;;;;72.03;39.87;;;;;;;10.15;66.16;101678.13;126298;1099;104162;-80
2021/10/20 01:15:11;;;;;;;71.03;39.97;;;;;;;10.15;66.64;101676.39;126322;1099;104149;-81
2021/10/20 01:17:39;;;;;;;67.57;36.90;;;;;;;10.17;66.38;101671.23;126337;1099;104267;-80
2021/10/20 01:20:08;;;;;;;69.17;36.90;;;;;;;10.19;66.15;101664.34;126289;1099;104335;-79
2021/10/20 01:22:37;;;;;;;71.27;36.77;;;;;;;10.20;66.42;101660.91;126269;1099;104264;-79
2021/10/20 01:25:06;;;;;;;64.63;36.43;;;;;;;10.22;66.15;101659.27;126296;1099;104735;-79
2021/10/20 01:27:34;;;;;;;64.93;34.40;;;;;;;10.22;66.71;101661.89;126290;1099;104156;-80
2021/10/20 01:30:05;;;;;;;61.37;35.10;;;;;;;10.21;66.09;101665.36;126297;1099;104137;-80
2021/10/20 01:32:34;;;;;;;65.45;35.85;;;;;;;10.23;66.13;101666.33;126227;1099;104144;-80
2021/10/20 01:35:02;;;;;;;56.67;34.53;;;;;;;10.24;66.15;101663.80;126330;1099;104152;-80
2021/10/20 01:37:30;;;;;;;61.23;33.63;;;;;;;10.25;66.04;101662.06;126347;1099;104216;-80
2021/10/20 01:39:58;;;;;;;60.90;32.77;;;;;;;10.24;66.14;101655.92;126335;1099;104252;-79
2021/10/20 01:42:29;;;;;;;61.93;32.90;;;;;;;10.23;66.53;101655.84;126328;1099;104153;-80
2021/10/20 01:44:57;;;;;;;60.30;32.60;;;;;;;10.23;66.49;101661.98;126332;1099;104274;-80
2021/10/20 01:47:26;;;;;;;60.70;32.33;;;;;;;10.23;66.55;101659.36;126283;1099;104171;-80
2021/10/20 01:49:54;;;;;;;59.50;32.53;;;;;;;10.21;66.08;101647.89;126340;1099;104239;-80
2021/10/20 01:52:22;;;;;;;59.57;32.47;;;;;;;10.18;66.58;101647.72;126276;1099;104156;-80
2021/10/20 01:54:52;;;;;;;58.27;33.40;;;;;;;10.18;66.58;101647.72;126368;1099;104612;-80
2021/10/20 01:57:20;;;;;;;59.90;33.40;;;;;;;10.17;66.35;101645.90;126295;1099;104178;-81
2021/10/20 01:59:48;;;;;;;56.10;32.43;;;;;;;10.18;66.56;101642.47;126323;1099;104146;-79
2021/10/20 02:02:20;;;;;;;57.70;32.73;;;;;;;10.19;66.01;101643.36;126294;1099;104327;-80
2021/10/20 02:04:49;;;;;;;57.07;32.03;;;;;;;10.19;66.29;101644.28;126271;1099;104319;-80
2021/10/20 02:07:18;;;;;;;58.83;33.30;;;;;;;10.20;66.44;101640.83;126307;1099;104197;-80
2021/10/20 02:09:46;;;;;;;60.85;33.05;;;;;;;10.20;66.23;101639.93;126333;1099;104596;-80
2021/10/20 02:12:14;;;;;;;61.90;32.43;;;;;;;10.21;66.32;101641.75;126336;1099;104142;-81
2021/10/20 02:14:42;;;;;;;61.90;33.17;;;;;;;10.22;66.10;101639.21;126316;1099;104146;-81
2021/10/20 02:17:11;;;;;;;56.95;31.75;;;;;;;10.25;66.15;101638.45;126328;1099;104316;-80
2021/10/20 02:19:39;;;;;;;63.60;32.83;;;;;;;10.26;66.09;101629.78;126341;1099;104172;-80
2021/10/20 02:22:07;;;;;;;60.73;33.33;;;;;;;10.26;66.40;101630.67;126309;1099;104191;-79
2021/10/20 02:24:35;;;;;;;62.40;33.00;;;;;;;10.27;66.43;101647.34;126339;1099;104280;-81
2021/10/20 02:27:03;;;;;;;59.10;31.30;;;;;;;10.27;66.64;101642.09;126353;1099;104184;-80
2021/10/20 02:29:31;;;;;;;61.90;32.33;;;;;;;10.27;66.13;101644.71;126276;1099;104165;-79
2021/10/20 02:32:00;;;;;;;56.05;32.25;;;;;;;10.26;66.69;101656.91;126333;1097;104172;-80
2021/10/20 02:34:28;;;;;;;58.73;32.67;;;;;;;10.24;66.79;101648.05;126291;1099;104268;-80
2021/10/20 02:36:56;;;;;;;63.10;35.23;;;;;;;10.23;66.19;101650.59;126342;1099;104213;-80
2021/10/20 02:39:24;;;;;;;66.80;34.93;;;;;;;10.22;66.31;101647.08;126320;1097;104278;-79
2021/10/20 02:41:52;;;;;;;67.43;37.00;;;;;;;10.23;66.37;101648.86;126284;1099;102096;-80
2021/10/20 02:44:20;;;;;;;66.03;34.33;;;;;;;10.23;66.20;101650.59;126296;1099;104152;-79
2021/10/20 02:46:48;;;;;;;62.10;33.23;;;;;;;10.25;66.78;101646.33;126322;1099;104162;-80
2021/10/20 02:49:16;;;;;;;63.93;34.20;;;;;;;10.25;66.23;101649.88;126347;1099;104631;-80
2021/10/20 02:51:44;;;;;;;59.37;33.77;;;;;;;10.26;66.24;101643.78;126350;1099;104133;-79
2021/10/20 02:54:12;;;;;;;66.90;34.80;;;;;;;10.28;66.29;101651.74;126277;1099;104309;-80
2021/10/20 02:56:39;;;;;;;63.97;35.03;;;;;;;10.28;66.57;101640.36;126324;1099;104216;-80
2021/10/20 02:59:07;;;;;;;65.13;34.13;;;;;;;10.28;66.66;101651.74;126326;1099;104219;-80
2021/10/20 03:01:35;;;;;;;64.00;33.83;;;;;;;10.29;66.87;101645.69;126368;1099;104150;-79
2021/10/20 03:04:03;;;;;;;62.00;34.80;;;;;;;10.30;66.78;101637.02;126275;1097;104198;-80
2021/10/20 03:06:31;;;;;;;64.27;34.47;;;;;;;10.30;66.33;101646.58;126327;1099;104192;-81
2021/10/20 03:08:59;;;;;;;61.77;34.40;;;;;;;10.28;66.38;101641.25;126368;1099;104133;-80
2021/10/20 03:11:27;;;;;;;62.25;34.50;;;;;;;10.26;66.84;101649.03;126270;1099;104271;-79
2021/10/20 03:13:56;;;;;;;66.23;35.60;;;;;;;10.25;66.40;101644.63;126316;1097;104140;-80
2021/10/20 03:16:24;;;;;;;64.27;34.93;;;;;;;10.25;66.70;101655.13;126370;1097;105270;-81
2021/10/20 03:18:52;;;;;;;64.10;35.20;;;;;;;10.25;66.37;101646.33;126368;1099;104281;-80
2021/10/20 03:21:20;;;;;;;65.70;34.00;;;;;;;10.23;66.89;101647.97;126342;1098;104195;-80
2021/10/20 03:23:48;;;;;;;65.93;34.23;;;;;;;10.22;66.61;101654.03;126284;1099;104608;-79
2021/10/20 03:26:16;;;;;;;64.73;35.20;;;;;;;10.19;66.33;101652.16;126344;1099;104325;-80
2021/10/20 03:28:44;;;;;;;67.10;37.10;;;;;;;10.18;66.44;101652.07;126310;1099;104165;-80
2021/10/20 03:31:12;;;;;;;64.33;34.07;;;;;;;10.15;66.74;101651.90;126286;1099;104166;-81
2021/10/20 03:33:39;;;;;;;59.77;32.80;;;;;;;10.10;66.35;101654.27;126312;1099;105886;-80
2021/10/20 03:36:08;;;;;;;62.25;33.25;;;;;;;10.07;66.36;101647.12;126270;1099;110767;-81
2021/10/20 03:38:40;;;;;;;59.80;32.80;;;;;;;10.04;66.86;101644.32;126263;1099;104922;-80
2021/10/20 03:41:31;;;;;;;60.30;32.43;;;;;;;9.99;67.06;101645.80;126356;1098;104172;-80
2021/10/20 03:43:59;;;;;;;63.57;33.30;;;;;;;9.95;66.96;101646.42;126248;1099;104146;-80
2021/10/20 03:46:27;;;;;;;63.77;33.63;;;;;;;9.89;66.96;101641.76;126294;1099;104172;-79
2021/10/20 03:48:55;;;;;;;62.40;31.87;;;;;;;9.87;66.33;101638.13;126340;1099;104322;-80
2021/10/20 03:51:22;;;;;;;59.00;32.40;;;;;;;9.84;66.47;101635.33;126291;1099;104267;-80
2021/10/20 03:53:51;;;;;;;60.80;33.00;;;;;;;9.78;67.04;101628.84;126349;1099;104344;-81
2021/10/20 03:56:18;;;;;;;61.23;32.60;;;;;;;9.71;66.37;101631.11;126158;1099;105341;-82
2021/10/20 03:58:46;;;;;;;59.77;31.73;;;;;;;9.64;67.06;101621.08;126229;1098;104293;-80
2021/10/20 04:01:14;;;;;;;57.70;31.60;;;;;;;9.62;67.12;101621.83;126216;1099;104217;-80
2021/10/20 04:03:42;;;;;;;59.47;31.27;;;;;;;9.59;67.15;101624.27;126336;1099;104255;-80
2021/10/20 04:06:10;;;;;;;58.30;31.13;;;;;;;9.57;67.05;101629.42;126212;1099;104146;-82
2021/10/20 04:08:39;;;;;;;61.70;32.50;;;;;;;9.51;67.03;101632.58;126279;1099;104141;-81
2021/10/20 04:11:10;;;;;;;60.13;30.50;;;;;;;9.47;66.57;101637.55;126261;1099;104192;-80
2021/10/20 04:13:38;;;;;;;58.80;31.23;;;;;;;9.42;66.41;101637.28;126277;1099;104188;-81
2021/10/20 04:16:09;;;;;;;60.50;30.90;;;;;;;9.37;66.65;101636.13;126289;1099;104139;-81
2021/10/20 04:18:37;;;;;;;57.43;32.10;;;;;;;9.32;66.97;101637.58;126280;1099;104216;-80
2021/10/20 04:21:04;;;;;;;56.97;31.87;;;;;;;9.29;66.50;101627.81;126262;1099;104201;-81
2021/10/20 04:23:32;;;;;;;62.13;30.93;;;;;;;9.24;67.32;101629.27;126206;1099;104146;-80
2021/10/20 04:26:00;;;;;;;59.37;30.83;;;;;;;9.22;66.68;101630.87;126292;1099;104152;-82
2021/10/20 04:28:28;;;;;;;59.27;31.67;;;;;;;9.21;66.89;101622.92;126351;1097;104204;-81
2021/10/20 04:30:59;;;;;;;69.77;33.63;;;;;;;9.18;66.86;101621.94;126356;1099;104149;-81
2021/10/20 04:33:27;;;;;;;59.63;30.40;;;;;;;9.17;66.90;101621.84;126246;1099;104281;-79
2021/10/20 04:35:54;;;;;;;67.43;32.87;;;;;;;9.16;66.79;101620.03;126221;1099;104286;-79
2021/10/20 04:38:22;;;;;;;63.87;31.63;;;;;;;9.15;67.46;101621.75;126233;1099;104162;-81
2021/10/20 04:40:50;;;;;;;58.03;30.47;;;;;;;9.14;66.88;101621.66;126242;1099;104169;-81
2021/10/20 04:43:18;;;;;;;58.27;30.90;;;;;;;9.14;67.50;101621.66;126265;1099;104156;-81
2021/10/20 04:45:46;;;;;;;56.53;30.00;;;;;;;9.13;66.89;101631.25;126263;1099;104300;-80
2021/10/20 04:48:14;;;;;;;60.70;30.70;;;;;;;9.14;67.56;101626.91;126214;1099;104201;-81
2021/10/20 04:50:41;;;;;;;63.57;32.07;;;;;;;9.15;67.29;101626.09;126266;1098;104245;-80
2021/10/20 04:53:09;;;;;;;59.73;31.17;;;;;;;9.13;67.08;101630.32;126267;1099;104226;-80
2021/10/20 04:55:37;;;;;;;60.27;31.77;;;;;;;9.13;67.02;101636.48;126257;1099;104272;-81
2021/10/20 04:58:07;;;;;;;53.87;30.17;;;;;;;9.15;66.98;101629.61;126298;1098;104316;-79
2021/10/20 05:00:37;;;;;;;63.73;31.17;;;;;;;9.17;67.04;101627.08;126346;1099;104141;-81
2021/10/20 05:03:05;;;;;;;65.97;30.50;;;;;;;9.17;67.11;101622.73;126264;1099;104201;-80
2021/10/20 05:05:33;;;;;;;60.33;30.20;;;;;;;9.18;67.09;101632.41;126274;1099;104284;-81
2021/10/20 05:08:01;;;;;;;60.40;30.20;;;;;;;9.21;67.31;101633.39;126243;1097;104279;-81
2021/10/20 05:10:29;;;;;;;63.17;31.70;;;;;;;9.23;67.85;101629.17;126265;1099;104312;-81
2021/10/20 05:12:57;;;;;;;55.97;29.73;;;;;;;9.26;67.49;101632.87;126292;1099;104160;-81
2021/10/20 05:15:26;;;;;;;54.83;29.47;;;;;;;9.30;67.90;101639.18;126303;1099;104150;-82
2021/10/20 05:17:53;;;;;;;60.43;30.93;;;;;;;9.33;67.39;101631.50;126280;1099;104139;-81
2021/10/20 05:20:21;;;;;;;65.57;30.10;;;;;;;9.37;67.29;101635.23;126117;1097;104288;-80
2021/10/20 05:22:51;;;;;;;61.57;30.40;;;;;;;9.39;67.42;101638.83;126072;1099;104140;-81
2021/10/20 05:25:22;;;;;;;52.97;29.20;;;;;;;9.42;67.66;101639.91;126057;1099;104201;-80
2021/10/20 05:27:51;;;;;;;56.77;30.00;;;;;;;9.44;67.91;101638.30;126091;1099;104146;-80
2021/10/20 05:30:20;;;;;;;59.33;29.33;;;;;;;9.49;67.84;101643.77;126186;1099;104144;-80
2021/10/20 05:32:48;;;;;;;56.00;31.03;;;;;;;9.52;68.03;101642.26;126058;1099;102389;-80
2021/10/20 05:35:19;;;;;;;57.27;28.57;;;;;;;9.56;67.88;101642.44;126135;1099;104306;-80
2021/10/20 05:37:51;;;;;;;56.37;27.60;;;;;;;9.60;67.80;101640.09;126096;1099;104217;-80
2021/10/20 05:40:24;;;;;;;55.20;27.10;;;;;;;9.64;68.10;101636.80;126092;1099;104153;-80
2021/10/20 05:42:53;;;;;;;56.42;26.48;;;;;;;9.68;67.88;101636.18;126069;1099;104156;-81
2021/10/20 05:45:21;;;;;;;52.47;27.70;;;;;;;9.74;67.80;101640.88;126254;1099;104131;-81
2021/10/20 05:47:49;;;;;;;51.53;26.50;;;;;;;9.78;68.14;101648.08;126071;1099;101867;-81
2021/10/20 05:50:17;;;;;;;59.77;28.57;;;;;;;9.82;68.06;101646.56;126007;1099;104201;-80
2021/10/20 05:52:45;;;;;;;51.60;25.93;;;;;;;9.86;68.04;101652.07;126114;1099;104146;-80
2021/10/20 05:55:16;;;;;;;53.67;27.00;;;;;;;9.92;67.78;101651.49;126222;1097;104175;-80
2021/10/20 05:57:48;;;;;;;50.93;25.40;;;;;;;9.97;68.04;101657.92;126093;1099;104253;-79
2021/10/20 06:00:20;;;;;;;46.07;24.83;;;;;;;10.01;67.95;101644.15;126101;1099;104476;-79
2021/10/20 06:02:53;;;;;;;45.43;25.47;;;;;;;10.08;67.78;101655.88;125952;1099;104328;-81
2021/10/20 06:05:24;;;;;;;49.97;25.37;;;;;;;10.16;68.18;101666.80;125968;1099;104274;-79
2021/10/20 06:07:54;;;;;;;44.30;25.40;;;;;;;10.21;67.43;101670.60;126178;1099;104165;-79
2021/10/20 06:10:25;;;;;;;46.10;25.93;;;;;;;10.26;67.96;101671.75;126197;1099;104317;-78
2021/10/20 06:12:53;;;;;;;49.97;26.03;;;;;;;10.32;67.92;101671.20;125959;1099;104418;-76
2021/10/20 06:15:24;;;;;;;49.13;26.63;;;;;;;10.38;67.51;101672.47;125999;1099;104143;-76
2021/10/20 06:17:53;;;;;;;49.30;26.83;;;;;;;10.46;67.53;101669.38;126147;1098;104225;-78
2021/10/20 06:20:24;;;;;;;48.60;25.77;;;;;;;10.53;67.62;101661.00;126142;1099;104172;-77
2021/10/20 06:22:55;;;;;;;55.93;28.80;;;;;;;10.59;67.49;101667.47;126216;1099;104269;-77
2021/10/20 06:25:25;;;;;;;49.03;27.73;;;;;;;10.67;67.75;101660.02;126090;1099;104133;-76
2021/10/20 06:27:55;;;;;;;59.57;28.50;;;;;;;10.76;67.64;101656.98;125945;1099;104296;-75
2021/10/20 06:30:26;;;;;;;57.43;29.40;;;;;;;10.84;67.22;101649.52;126060;1099;104155;-76
2021/10/20 06:32:57;;;;;;;55.73;28.57;;;;;;;10.92;67.56;101651.74;125970;1099;104677;-77
2021/10/20 06:35:26;;;;;;;53.13;28.57;;;;;;;11.02;67.56;101653.12;126166;1099;104160;-77
2021/10/20 06:37:58;;;;;;;51.60;28.27;;;;;;;11.10;67.13;101651.78;126141;1099;104316;-78
2021/10/20 06:40:31;;;;;;;51.83;27.77;;;;;;;11.20;67.14;101647.90;126088;1099;104173;-79
2021/10/20 06:43:01;;;;;;;51.77;28.23;;;;;;;11.29;66.99;101647.48;126186;1099;104166;-78
2021/10/20 06:45:31;;;;;;;57.83;28.63;;;;;;;11.39;67.24;101646.21;126199;1099;104280;-77
2021/10/20 06:48:04;;;;;;;51.33;26.90;;;;;;;11.49;66.95;101637.98;126158;1099;104293;-78
2021/10/20 06:50:33;;;;;;;44.60;25.00;;;;;;;11.59;67.17;101641.96;126196;1098;104316;-77
2021/10/20 06:53:03;;;;;;;46.70;26.30;;;;;;;11.69;66.59;101644.23;125368;1102;105731;-77
2021/10/20 06:55:36;;;;;;;44.97;25.43;;;;;;;11.78;66.79;101643.77;125819;1099;104204;-77
2021/10/20 06:58:05;;;;;;;43.97;23.40;;;;;;;11.87;66.26;101645.14;125917;1099;104219;-77
2021/10/20 07:00:36;;;;;;;41.80;23.37;;;;;;;11.96;66.04;101638.55;125285;1102;104234;-78
2021/10/20 07:03:06;;;;;;;34.90;18.45;;;;;;;12.06;65.64;101635.55;125323;1099;104648;-77
2021/10/20 07:05:39;;;;;;;33.20;16.00;;;;;;;12.10;65.17;101633.95;125488;1099;104195;-78
2021/10/20 07:08:20;;;;;;;27.93;14.53;;;;;;;12.15;65.39;101625.42;126048;1099;104194;-79
2021/10/20 07:10:49;;;;;;;30.00;14.60;;;;;;;12.25;64.67;101629.41;126176;1098;104488;-79
2021/10/20 07:13:21;;;;;;;30.23;14.40;;;;;;;12.33;64.35;101635.03;126157;1099;104188;-78
2021/10/20 07:15:58;;;;;;;28.60;15.05;;;;;;;12.40;64.41;101640.66;126150;1099;103982;-79
2021/10/20 07:18:32;;;;;;;31.27;16.27;;;;;;;12.50;64.37;101633.19;125464;1099;104172;-77
2021/10/20 07:21:04;;;;;;;35.23;16.43;;;;;;;12.59;64.51;101626.59;126046;1099;104379;-77
2021/10/20 07:23:36;;;;;;;39.93;19.50;;;;;;;12.71;64.31;101633.24;125450;1099;103858;-79
2021/10/20 07:26:09;;;;;;;35.07;19.73;;;;;;;12.80;64.02;101623.13;126311;1097;104255;-80
2021/10/20 07:28:40;;;;;;;31.80;16.25;;;;;;;12.89;63.62;101623.53;126201;1099;104272;-78
2021/10/20 07:31:12;;;;;;;29.60;15.03;;;;;;;12.99;63.40;101616.03;126282;1099;104166;-80
2021/10/20 07:33:54;;;;;;;30.87;16.87;;;;;;;13.08;62.93;101613.80;126230;1099;104210;-80
2021/10/20 07:36:23;;;;;;;30.03;15.47;;;;;;;13.18;62.72;101612.45;126226;1099;104181;-76
2021/10/20 07:38:53;;;;;;;39.20;18.67;;;;;;;13.28;62.94;101614.66;126176;1099;104181;-79
2021/10/20 07:41:25;;;;;;;42.83;19.90;;;;;;;13.36;62.84;101610.63;126122;1099;104303;-78
2021/10/20 07:43:56;;;;;;;39.33;20.27;;;;;;;13.44;62.70;101609.20;126115;1099;104139;-76
2021/10/20 07:46:34;;;;;;;35.70;18.53;;;;;;;13.53;62.93;101608.70;126182;1099;104137;-77
2021/10/20 07:49:05;;;;;;;;;;;;;;;13.61;61.38;101612.55;126291;1099;104232;-77
2021/10/20 07:51:45;;;;;;;33.23;16.97;;;;;;;13.73;62.76;101608.59;126141;1099;104249;-78
2021/10/20 07:54:14;;;;;;;29.30;15.20;;;;;;;13.83;62.15;101605.51;126092;1099;104140;-77
2021/10/20 07:56:46;;;;;;;29.20;15.23;;;;;;;13.93;61.75;101610.33;126288;1099;104146;-80
2021/10/20 07:59:21;;;;;;;27.93;14.63;;;;;;;14.03;61.63;101598.38;126184;1098;104280;-77
2021/10/20 08:01:50;;;;;;;31.87;15.23;;;;;;;14.14;60.65;101593.52;126190;1097;104142;-77
2021/10/20 08:04:25;;;;;;;30.53;15.93;;;;;;;14.26;60.45;101596.63;126153;1099;104245;-79
2021/10/20 08:06:57;;;;;;;31.37;15.47;;;;;;;14.35;60.11;101591.70;126270;1099;104140;-77
2021/10/20 08:09:27;;;;;;;30.70;15.43;;;;;;;14.48;59.83;101582.49;126156;1099;104329;-78
2021/10/20 08:11:57;;;;;;;28.05;14.05;;;;;;;14.59;59.99;101577.61;126302;1099;104156;-78
2021/10/20 08:14:27;;;;;;;28.37;13.93;;;;;;;14.70;59.21;101573.63;126029;1099;104265;-76
2021/10/20 08:16:59;;;;;;;27.55;14.05;;;;;;;14.82;59.60;101577.55;126021;1099;104239;-76
2021/10/20 08:19:28;;;;;;;28.63;13.57;;;;;;;14.94;58.76;101567.41;126055;1098;104150;-76
2021/10/20 08:21:57;;;;;;;28.90;13.90;;;;;;;15.07;59.46;101569.64;126172;1099;104573;-76
2021/10/20 08:24:28;;;;;;;26.17;13.30;;;;;;;15.19;58.21;101568.26;126074;1098;104143;-76
2021/10/20 08:27:00;;;;;;;23.77;12.83;;;;;;;15.32;58.92;101561.63;126088;1098;104169;-76
2021/10/20 08:29:29;;;;;;;24.20;13.20;;;;;;;15.43;57.71;101561.15;126008;1097;104364;-76
2021/10/20 08:31:57;;;;;;;25.40;12.37;;;;;;;15.51;57.81;101552.58;125951;1099;108187;-76
2021/10/20 08:34:27;;;;;;;24.50;13.07;;;;;;;15.59;57.05;101548.42;126112;1099;104395;-76
2021/10/20 08:36:56;;;;;;;27.03;12.17;;;;;;;15.72;57.03;101541.76;126063;1099;104281;-77
2021/10/20 08:39:26;;;;;;;23.67;11.60;;;;;;;15.83;56.66;101539.48;126037;1099;104277;-78
2021/10/20 08:42:00;;;;;;;23.00;12.80;;;;;;;15.87;55.86;101530.80;126024;1099;104280;-78
2021/10/20 08:44:34;;;;;;;24.10;11.70;;;;;;;15.95;56.59;101524.86;126102;1099;104600;-78
2021/10/20 08:47:08;;;;;;;23.77;11.33;;;;;;;15.98;55.32;101524.06;126139;1099;104293;-78
2021/10/20 08:49:40;;;;;;;25.60;11.25;;;;;;;16.07;56.08;101526.10;126280;1098;104292;-79
2021/10/20 08:52:10;;;;;;;22.73;11.30;;;;;;;16.18;56.13;101522.90;126116;1099;104126;-78
2021/10/20 08:54:39;;;;;;;22.63;11.30;;;;;;;16.26;54.18;101516.94;126233;1099;104242;-77
2021/10/20 08:57:10;;;;;;;22.80;10.57;;;;;;;16.31;54.52;101521.52;126238;1098;104297;-79
2021/10/20 08:59:40;;;;;;;22.93;11.37;;;;;;;16.38;54.31;101514.64;126260;1099;104221;-77
2021/10/20 09:02:09;;;;;;;22.20;11.10;;;;;;;16.48;55.08;101521.08;126179;1098;104239;-76
2021/10/20 09:04:43;;;;;;;22.73;10.83;;;;;;;16.60;53.91;101517.89;126147;1099;104225;-75
2021/10/20 09:07:15;;;;;;;22.95;11.00;;;;;;;16.69;54.34;101515.48;126304;1099;104147;-77
2021/10/20 09:09:50;;;;;;;21.47;11.10;;;;;;;16.73;53.65;101514.69;126213;1099;104169;-78
2021/10/20 09:12:30;;;;;;;25.97;11.60;;;;;;;16.76;53.08;101505.94;126229;1099;104213;-78
2021/10/20 09:15:05;;;;;;;21.83;10.33;;;;;;;16.79;52.85;101506.90;126253;1099;104386;-77
2021/10/20 09:17:48;;;;;;;22.23;10.60;;;;;;;16.87;52.75;101510.67;126298;1099;104281;-77
2021/10/20 09:20:20;;;;;;;25.57;10.90;;;;;;;16.94;52.73;101508.19;126139;1098;104279;-75
2021/10/20 09:22:57;;;;;;;23.33;11.60;;;;;;;17.01;51.97;101502.19;126033;1098;106966;-76
2021/10/20 09:25:34;;;;;;;22.90;11.13;;;;;;;17.06;52.09;101489.94;126067;1099;104275;-76
2021/10/20 09:28:03;;;;;;;25.13;11.53;;;;;;;17.10;51.30;101494.47;125893;1099;104130;-77
2021/10/20 09:30:32;;;;;;;23.30;10.73;;;;;;;17.16;51.70;101485.78;126008;1098;104163;-77
2021/10/20 09:33:07;;;;;;;24.33;11.23;;;;;;;17.19;50.74;101476.12;126040;1099;104199;-77
2021/10/20 09:35:38;;;;;;;21.45;11.38;;;;;;;17.23;50.89;101470.05;125953;1099;104137;-78
2021/10/20 09:38:14;;;;;;;19.53;9.43;;;;;;;17.27;50.57;101463.05;125945;1099;104220;-78
2021/10/20 09:40:51;;;;;;;18.87;9.13;;;;;;;17.34;50.24;101465.00;125990;1099;104152;-78
2021/10/20 09:43:27;;;;;;;21.00;9.40;;;;;;;17.39;50.04;101458.03;126105;1098;104182;-78
2021/10/20 09:45:58;;;;;;;19.40;9.00;;;;;;;17.45;49.28;101457.26;125799;1099;104393;-78
2021/10/20 09:48:30;;;;;;;17.53;8.57;;;;;;;17.51;49.51;101446.78;125887;1097;104346;-78
2021/10/20 09:51:08;;;;;;;18.07;8.20;;;;;;;17.58;48.96;101446.07;126170;1099;104144;-78
2021/10/20 09:53:49;;;;;;;17.37;7.70;;;;;;;17.68;49.08;101447.16;125937;1099;112966;-78
2021/10/20 09:56:23;;;;;;;13.73;7.13;;;;;;;17.73;48.12;101442.86;126088;1099;104165;-77
2021/10/20 09:58:53;;;;;;;15.50;7.27;;;;;;;17.81;48.17;101440.37;126111;1099;104634;-76
2021/10/20 10:01:25;;;;;;;17.53;7.70;;;;;;;17.89;47.56;101433.48;126063;1099;104162;-77
2021/10/20 10:03:58;;;;;;;15.90;7.37;;;;;;;17.95;48.12;101430.05;126163;1099;104181;-77
2021/10/20 10:06:33;;;;;;;15.20;6.83;;;;;;;18.01;48.02;101427.52;125965;1099;104146;-77
2021/10/20 10:09:09;;;;;;;13.10;6.60;;;;;;;18.11;47.78;101425.95;125847;1098;104211;-76
2021/10/20 10:11:47;;;;;;;16.30;6.93;;;;;;;18.15;47.25;101425.12;125978;1099;104193;-77
2021/10/20 10:14:21;;;;;;;13.80;7.30;;;;;;;18.20;46.72;101406.63;125900;1099;109340;-76
2021/10/20 10:16:58;;;;;;;16.27;7.33;;;;;;;18.25;47.80;101407.63;125829;1099;104531;-78
2021/10/20 10:19:30;;;;;;;17.47;7.73;;;;;;;18.25;46.12;101410.28;125842;1099;104220;-77
2021/10/20 10:21:59;;;;;;;16.60;7.73;;;;;;;18.25;46.59;101416.48;125884;1099;104201;-77
2021/10/20 10:24:36;;;;;;;15.47;7.33;;;;;;;18.19;44.51;101407.52;126088;1099;104155;-76
2021/10/20 10:27:08;;;;;;;18.20;8.25;;;;;;;18.23;46.02;101406.68;125918;1099;104229;-77
2021/10/20 10:29:46;;;;;;;;;;;;;;;18.28;43.95;101405.91;126099;1099;104220;-77
2021/10/20 10:32:17;;;;;;;16.43;8.43;;;;;;;18.28;45.56;101400.59;126014;1099;104160;-77
2021/10/20 10:34:48;;;;;;;17.23;7.50;;;;;;;18.26;44.46;101397.03;125918;1099;104258;-77
2021/10/20 10:37:31;;;;;;;16.87;8.03;;;;;;;18.28;45.16;101397.94;126146;1099;104179;-77
2021/10/20 10:40:18;;;;;;;14.40;7.10;;;;;;;18.27;44.73;101387.29;125905;1099;104323;-76
2021/10/20 10:42:48;;;;;;;16.50;7.23;;;;;;;18.27;44.80;101382.86;125893;1096;104313;-76
2021/10/20 10:45:17;;;;;;;16.17;7.53;;;;;;;18.31;44.76;101368.77;126212;1099;104152;-77
2021/10/20 10:47:59;;;;;;;14.77;7.23;;;;;;;18.31;44.06;101365.23;126258;1099;104143;-77
2021/10/20 10:50:40;;;;;;;16.70;7.70;;;;;;;18.31;44.50;101368.77;126161;1099;104246;-77
2021/10/20 10:53:09;;;;;;;14.23;7.40;;;;;;;18.35;44.71;101361.74;125866;1099;104318;-78
2021/10/20 10:56:02;;;;;;;16.87;7.30;;;;;;;18.40;44.82;101351.20;125863;1098;104149;-76
2021/10/20 10:58:53;;;;;;;14.05;7.58;;;;;;;18.43;44.84;101348.59;125865;1099;104251;-78
2021/10/20 11:01:38;;;;;;;16.73;8.27;;;;;;;18.42;44.57;101350.36;125480;1099;104191;-78
2021/10/20 11:04:21;;;;;;;15.45;7.80;;;;;;;18.43;45.03;101340.62;125819;1099;104216;-78
2021/10/20 11:06:53;;;;;;;16.27;7.97;;;;;;;18.46;44.53;101338.02;125879;1099;104143;-79
2021/10/20 11:09:31;;;;;;;15.73;7.90;;;;;;;18.48;44.76;101336.27;125985;1099;104350;-81
2021/10/20 11:12:04;;;;;;;18.60;7.97;;;;;;;18.50;44.41;101337.20;125779;1099;104328;-80